sensor_id;sensor_type;location;lat;lon;timestamp;pressure;altitude;pressure_sealevel;temperature;humidity
38780;BME280;29273;49.962;9.768;2022-08-19T00:01:30;99274.22;;;24.66;49.01
38780;BME280;29273;49.962;9.768;2022-08-19T00:03:59;99267.09;;;24.70;48.17
38780;BME280;29273;49.962;9.768;2022-08-19T00:06:28;99263.91;;;24.68;48.70
38780;BME280;29273;49.962;9.768;2022-08-19T00:08:55;99258.59;;;24.63;48.90
38780;BME280;29273;49.962;9.768;2022-08-19T00:11:21;99266.72;;;24.63;49.14
38780;BME280;29273;49.962;9.768;2022-08-19T00:13:47;99267.03;;;24.62;48.92
38780;BME280;29273;49.962;9.768;2022-08-19T00:16:14;99262.41;;;24.62;49.09
38780;BME280;29273;49.962;9.768;2022-08-19T00:18:40;99259.22;;;24.60;49.30
38780;BME280;29273;49.962;9.768;2022-08-19T00:21:06;99241.38;;;24.59;48.94
38780;BME280;29273;49.962;9.768;2022-08-19T00:23:34;99247.56;;;24.60;49.15
38780;BME280;29273;49.962;9.768;2022-08-19T00:26:05;99244.06;;;24.59;48.80
38780;BME280;29273;49.962;9.768;2022-08-19T00:28:32;99234.69;;;24.56;49.35
38780;BME280;29273;49.962;9.768;2022-08-19T00:30:59;99236.56;;;24.56;49.21
38780;BME280;29273;49.962;9.768;2022-08-19T00:33:25;99222.53;;;24.54;49.40
38780;BME280;29273;49.962;9.768;2022-08-19T00:35:50;99222.81;;;24.52;49.34
38780;BME280;29273;49.962;9.768;2022-08-19T00:38:16;99228.53;;;24.51;49.29
38780;BME280;29273;49.962;9.768;2022-08-19T00:40:44;99230.38;;;24.55;48.80
38780;BME280;29273;49.962;9.768;2022-08-19T00:43:13;99232.69;;;24.48;49.29
38780;BME280;29273;49.962;9.768;2022-08-19T00:45:43;99214.53;;;24.49;49.43
38780;BME280;29273;49.962;9.768;2022-08-19T00:48:10;99211.03;;;24.48;49.25
38780;BME280;29273;49.962;9.768;2022-08-19T00:50:35;99205.94;;;24.47;49.49
38780;BME280;29273;49.962;9.768;2022-08-19T00:53:01;99203.84;;;24.44;49.68
38780;BME280;29273;49.962;9.768;2022-08-19T00:55:30;99194.59;;;24.45;49.14
38780;BME280;29273;49.962;9.768;2022-08-19T00:58:01;99187.28;;;24.45;48.99
38780;BME280;29273;49.962;9.768;2022-08-19T01:00:29;99183.09;;;24.39;49.42
38780;BME280;29273;49.962;9.768;2022-08-19T01:02:55;99192.97;;;24.35;49.71
38780;BME280;29273;49.962;9.768;2022-08-19T01:05:25;99193.13;;;24.38;49.03
38780;BME280;29273;49.962;9.768;2022-08-19T01:07:53;99194.97;;;24.29;49.83
38780;BME280;29273;49.962;9.768;2022-08-19T01:10:21;99200.06;;;24.31;49.24
38780;BME280;29273;49.962;9.768;2022-08-19T01:12:49;99210.41;;;24.29;49.76
38780;BME280;29273;49.962;9.768;2022-08-19T01:15:19;99206.28;;;24.31;49.00
38780;BME280;29273;49.962;9.768;2022-08-19T01:17:47;99214.03;;;24.24;49.81
38780;BME280;29273;49.962;9.768;2022-08-19T01:20:16;99220.22;;;24.25;49.69
38780;BME280;29273;49.962;9.768;2022-08-19T01:22:48;99222.63;;;24.26;49.02
38780;BME280;29273;49.962;9.768;2022-08-19T01:25:17;99223.59;;;24.22;49.44
38780;BME280;29273;49.962;9.768;2022-08-19T01:27:46;99200.03;;;24.22;49.38
38780;BME280;29273;49.962;9.768;2022-08-19T01:30:19;99193.31;;;24.19;49.50
38780;BME280;29273;49.962;9.768;2022-08-19T01:32:45;99181.81;;;24.14;50.03
38780;BME280;29273;49.962;9.768;2022-08-19T01:35:12;99180.22;;;24.13;50.27
38780;BME280;29273;49.962;9.768;2022-08-19T01:38:04;99194.25;;;24.15;49.47
38780;BME280;29273;49.962;9.768;2022-08-19T01:40:32;99205.69;;;24.12;49.51
38780;BME280;29273;49.962;9.768;2022-08-19T01:42:58;99218.50;;;24.06;50.52
38780;BME280;29273;49.962;9.768;2022-08-19T01:45:26;99212.78;;;24.08;50.03
38780;BME280;29273;49.962;9.768;2022-08-19T01:47:53;99218.00;;;24.04;50.34
38780;BME280;29273;49.962;9.768;2022-08-19T01:50:19;99221.31;;;24.01;50.72
38780;BME280;29273;49.962;9.768;2022-08-19T01:52:45;99233.28;;;24.00;50.58
38780;BME280;29273;49.962;9.768;2022-08-19T01:55:15;99236.47;;;24.02;50.09
38780;BME280;29273;49.962;9.768;2022-08-19T01:57:42;99247.28;;;24.02;50.16
38780;BME280;29273;49.962;9.768;2022-08-19T02:00:12;99253.47;;;24.02;50.02
38780;BME280;29273;49.962;9.768;2022-08-19T02:02:41;99242.00;;;23.97;50.75
38780;BME280;29273;49.962;9.768;2022-08-19T02:05:07;99247.41;;;23.97;50.89
38780;BME280;29273;49.962;9.768;2022-08-19T02:07:34;99238.97;;;23.98;50.69
38780;BME280;29273;49.962;9.768;2022-08-19T02:10:03;99238.88;;;24.04;50.35
38780;BME280;29273;49.962;9.768;2022-08-19T02:12:28;99224.63;;;23.98;50.88
38780;BME280;29273;49.962;9.768;2022-08-19T02:14:54;99234.34;;;23.99;51.03
38780;BME280;29273;49.962;9.768;2022-08-19T02:17:19;99233.56;;;23.98;50.94
38780;BME280;29273;49.962;9.768;2022-08-19T02:19:45;99248.38;;;24.01;51.22
38780;BME280;29273;49.962;9.768;2022-08-19T02:22:11;99254.59;;;24.01;51.01
38780;BME280;29273;49.962;9.768;2022-08-19T02:24:36;99249.97;;;24.02;50.83
38780;BME280;29273;49.962;9.768;2022-08-19T02:27:02;99240.75;;;24.03;51.03
38780;BME280;29273;49.962;9.768;2022-08-19T02:29:27;99245.06;;;24.04;51.05
38780;BME280;29273;49.962;9.768;2022-08-19T02:31:53;99240.44;;;24.05;51.30
38780;BME280;29273;49.962;9.768;2022-08-19T02:34:18;99230.75;;;24.04;50.91
38780;BME280;29273;49.962;9.768;2022-08-19T02:36:44;99235.03;;;24.05;51.00
38780;BME280;29273;49.962;9.768;2022-08-19T02:39:10;99237.75;;;24.05;51.06
38780;BME280;29273;49.962;9.768;2022-08-19T02:41:35;99239.66;;;24.04;50.97
38780;BME280;29273;49.962;9.768;2022-08-19T02:44:02;99244.75;;;24.06;50.88
38780;BME280;29273;49.962;9.768;2022-08-19T02:46:31;99254.19;;;24.08;50.43
38780;BME280;29273;49.962;9.768;2022-08-19T02:49:01;99250.66;;;24.08;50.64
38780;BME280;29273;49.962;9.768;2022-08-19T02:51:30;99247.94;;;24.08;50.49
38780;BME280;29273;49.962;9.768;2022-08-19T02:53:56;99253.97;;;24.05;51.26
38780;BME280;29273;49.962;9.768;2022-08-19T02:56:22;99247.75;;;24.04;51.17
38780;BME280;29273;49.962;9.768;2022-08-19T02:58:49;99252.09;;;24.05;51.29
38780;BME280;29273;49.962;9.768;2022-08-19T03:01:27;99247.94;;;24.08;50.14
38780;BME280;29273;49.962;9.768;2022-08-19T03:03:54;99253.19;;;24.04;50.93
38780;BME280;29273;49.962;9.768;2022-08-19T03:06:21;99255.88;;;24.04;50.99
38780;BME280;29273;49.962;9.768;2022-08-19T03:08:48;99261.00;;;24.06;50.86
38780;BME280;29273;49.962;9.768;2022-08-19T03:11:23;99267.38;;;24.10;50.16
38780;BME280;29273;49.962;9.768;2022-08-19T03:13:50;99267.50;;;24.05;50.79
38780;BME280;29273;49.962;9.768;2022-08-19T03:16:17;99263.50;;;24.02;51.01
38780;BME280;29273;49.962;9.768;2022-08-19T03:18:42;99261.28;;;24.04;50.90
38780;BME280;29273;49.962;9.768;2022-08-19T03:21:08;99267.00;;;24.02;51.04
38780;BME280;29273;49.962;9.768;2022-08-19T03:23:35;99274.81;;;24.04;50.88
38780;BME280;29273;49.962;9.768;2022-08-19T03:26:04;99269.59;;;24.08;50.25
38780;BME280;29273;49.962;9.768;2022-08-19T03:28:30;99267.31;;;24.01;51.09
38780;BME280;29273;49.962;9.768;2022-08-19T03:30:59;99263.69;;;24.06;50.72
38780;BME280;29273;49.962;9.768;2022-08-19T03:33:27;99268.63;;;24.04;50.65
38780;BME280;29273;49.962;9.768;2022-08-19T03:36:20;99270.50;;;24.03;49.75
38780;BME280;29273;49.962;9.768;2022-08-19T03:38:50;99264.78;;;24.05;50.26
38780;BME280;29273;49.962;9.768;2022-08-19T03:41:24;99259.59;;;24.08;50.17
38780;BME280;29273;49.962;9.768;2022-08-19T03:43:51;99267.31;;;24.01;50.91
38780;BME280;29273;49.962;9.768;2022-08-19T03:46:20;99266.41;;;24.06;50.62
38780;BME280;29273;49.962;9.768;2022-08-19T03:48:47;99269.22;;;24.00;50.87
38780;BME280;29273;49.962;9.768;2022-08-19T03:51:18;99268.00;;;24.07;50.30
38780;BME280;29273;49.962;9.768;2022-08-19T03:53:45;99276.03;;;23.98;51.05
38780;BME280;29273;49.962;9.768;2022-08-19T03:56:12;99265.72;;;24.00;50.63
38780;BME280;29273;49.962;9.768;2022-08-19T03:58:38;99265.19;;;23.98;50.93
38780;BME280;29273;49.962;9.768;2022-08-19T04:01:13;99262.09;;;24.05;50.19
38780;BME280;29273;49.962;9.768;2022-08-19T04:03:39;99255.50;;;23.97;50.75
38780;BME280;29273;49.962;9.768;2022-08-19T04:06:19;99245.66;;;24.01;50.12
38780;BME280;29273;49.962;9.768;2022-08-19T04:08:48;99252.31;;;23.95;50.64
38780;BME280;29273;49.962;9.768;2022-08-19T04:11:17;99247.69;;;23.95;50.63
38780;BME280;29273;49.962;9.768;2022-08-19T04:13:43;99250.22;;;23.92;50.95
38780;BME280;29273;49.962;9.768;2022-08-19T04:16:10;99253.22;;;23.90;50.83
38780;BME280;29273;49.962;9.768;2022-08-19T04:18:37;99252.41;;;23.90;50.60
38780;BME280;29273;49.962;9.768;2022-08-19T04:21:04;99250.31;;;23.87;50.81
38780;BME280;29273;49.962;9.768;2022-08-19T04:23:30;99249.00;;;23.84;51.15
38780;BME280;29273;49.962;9.768;2022-08-19T04:25:56;99250.72;;;23.80;51.21
38780;BME280;29273;49.962;9.768;2022-08-19T04:28:22;99251.81;;;23.79;51.30
38780;BME280;29273;49.962;9.768;2022-08-19T04:30:50;99244.78;;;23.78;51.02
38780;BME280;29273;49.962;9.768;2022-08-19T04:33:19;99241.59;;;23.76;51.12
38780;BME280;29273;49.962;9.768;2022-08-19T04:35:47;99253.00;;;23.73;51.13
38780;BME280;29273;49.962;9.768;2022-08-19T04:38:14;99256.31;;;23.70;51.17
38780;BME280;29273;49.962;9.768;2022-08-19T04:40:42;99252.31;;;23.67;51.08
38780;BME280;29273;49.962;9.768;2022-08-19T04:43:26;99254.00;;;23.63;51.74
38780;BME280;29273;49.962;9.768;2022-08-19T04:45:53;99258.63;;;23.62;51.62
38780;BME280;29273;49.962;9.768;2022-08-19T04:48:19;99252.72;;;23.60;51.66
38780;BME280;29273;49.962;9.768;2022-08-19T04:50:54;99268.16;;;23.60;51.79
38780;BME280;29273;49.962;9.768;2022-08-19T04:53:27;99264.63;;;23.59;51.58
38780;BME280;29273;49.962;9.768;2022-08-19T04:55:59;99269.75;;;23.61;51.21
38780;BME280;29273;49.962;9.768;2022-08-19T04:58:26;99281.97;;;23.58;51.73
38780;BME280;29273;49.962;9.768;2022-08-19T05:00:52;99287.66;;;23.57;51.86
38780;BME280;29273;49.962;9.768;2022-08-19T05:03:19;99284.97;;;23.57;52.22
38780;BME280;29273;49.962;9.768;2022-08-19T05:05:46;99288.97;;;23.59;52.13
38780;BME280;29273;49.962;9.768;2022-08-19T05:08:20;99287.06;;;23.60;52.17
38780;BME280;29273;49.962;9.768;2022-08-19T05:10:49;99299.97;;;23.63;51.79
38780;BME280;29273;49.962;9.768;2022-08-19T05:13:17;99299.97;;;23.63;52.04
38780;BME280;29273;49.962;9.768;2022-08-19T05:15:43;99295.69;;;23.62;52.18
38780;BME280;29273;49.962;9.768;2022-08-19T05:18:09;99296.97;;;23.64;52.41
38780;BME280;29273;49.962;9.768;2022-08-19T05:20:53;99310.47;;;23.64;52.53
38780;BME280;29273;49.962;9.768;2022-08-19T05:23:38;99308.78;;;23.69;52.28
38780;BME280;29273;49.962;9.768;2022-08-19T05:26:03;99313.91;;;23.70;52.34
38780;BME280;29273;49.962;9.768;2022-08-19T05:28:29;99310.06;;;23.71;52.49
38780;BME280;29273;49.962;9.768;2022-08-19T05:30:55;99323.28;;;23.73;52.35
38780;BME280;29273;49.962;9.768;2022-08-19T05:33:21;99321.13;;;23.75;52.55
38780;BME280;29273;49.962;9.768;2022-08-19T05:35:48;99328.28;;;23.79;52.46
38780;BME280;29273;49.962;9.768;2022-08-19T05:38:16;99328.81;;;23.81;52.18
38780;BME280;29273;49.962;9.768;2022-08-19T05:40:42;99325.28;;;23.81;52.19
38780;BME280;29273;49.962;9.768;2022-08-19T05:43:11;99323.41;;;23.81;52.44
38780;BME280;29273;49.962;9.768;2022-08-19T05:45:40;99330.03;;;23.89;51.66
38780;BME280;29273;49.962;9.768;2022-08-19T05:48:07;99326.34;;;23.85;52.50
38780;BME280;29273;49.962;9.768;2022-08-19T05:50:35;99336.22;;;23.90;52.17
38780;BME280;29273;49.962;9.768;2022-08-19T05:53:01;99339.56;;;23.87;52.16
38780;BME280;29273;49.962;9.768;2022-08-19T05:55:26;99337.66;;;23.87;52.64
38780;BME280;29273;49.962;9.768;2022-08-19T05:57:52;99346.56;;;23.88;52.41
38780;BME280;29273;49.962;9.768;2022-08-19T06:00:17;99342.75;;;23.89;52.39
38780;BME280;29273;49.962;9.768;2022-08-19T06:02:43;99345.16;;;23.90;52.38
38780;BME280;29273;49.962;9.768;2022-08-19T06:05:09;99343.25;;;23.91;52.52
38780;BME280;29273;49.962;9.768;2022-08-19T06:07:36;99353.16;;;23.95;52.21
38780;BME280;29273;49.962;9.768;2022-08-19T06:10:04;99351.75;;;23.98;52.39
38780;BME280;29273;49.962;9.768;2022-08-19T06:12:31;99354.97;;;24.00;52.57
38780;BME280;29273;49.962;9.768;2022-08-19T06:15:09;99360.28;;;24.05;51.88
38780;BME280;29273;49.962;9.768;2022-08-19T06:17:36;99354.97;;;24.00;52.72
38780;BME280;29273;49.962;9.768;2022-08-19T06:20:06;99352.34;;;24.09;51.96
38780;BME280;29273;49.962;9.768;2022-08-19T06:22:46;99357.16;;;24.12;51.88
38780;BME280;29273;49.962;9.768;2022-08-19T06:25:14;99361.56;;;24.08;52.31
38780;BME280;29273;49.962;9.768;2022-08-19T06:27:41;99363.97;;;24.09;52.54
38780;BME280;29273;49.962;9.768;2022-08-19T06:30:07;99370.16;;;24.10;52.57
38780;BME280;29273;49.962;9.768;2022-08-19T06:32:33;99366.84;;;24.13;52.66
38780;BME280;29273;49.962;9.768;2022-08-19T06:34:58;99376.28;;;24.15;52.59
38780;BME280;29273;49.962;9.768;2022-08-19T06:37:24;99372.16;;;24.18;52.68
38780;BME280;29273;49.962;9.768;2022-08-19T06:39:51;99373.47;;;24.20;52.25
38780;BME280;29273;49.962;9.768;2022-08-19T06:42:16;99378.28;;;24.24;52.29
38780;BME280;29273;49.962;9.768;2022-08-19T06:44:46;99380.88;;;24.29;51.89
38780;BME280;29273;49.962;9.768;2022-08-19T06:47:15;99377.88;;;24.30;52.31
38780;BME280;29273;49.962;9.768;2022-08-19T06:49:42;99372.47;;;24.30;52.01
38780;BME280;29273;49.962;9.768;2022-08-19T06:52:07;99372.94;;;24.32;52.15
38780;BME280;29273;49.962;9.768;2022-08-19T06:54:33;99366.94;;;24.35;52.22
38780;BME280;29273;49.962;9.768;2022-08-19T06:57:00;99378.72;;;24.39;52.44
38780;BME280;29273;49.962;9.768;2022-08-19T06:59:29;99382.16;;;24.45;52.20
38780;BME280;29273;49.962;9.768;2022-08-19T07:01:58;99379.16;;;24.47;51.98
38780;BME280;29273;49.962;9.768;2022-08-19T07:04:28;99382.22;;;24.54;52.01
38780;BME280;29273;49.962;9.768;2022-08-19T07:06:59;99377.50;;;24.60;51.77
38780;BME280;29273;49.962;9.768;2022-08-19T07:09:25;99377.50;;;24.60;52.00
38780;BME280;29273;49.962;9.768;2022-08-19T07:11:53;99382.31;;;24.63;51.92
38780;BME280;29273;49.962;9.768;2022-08-19T07:14:22;99386.53;;;24.69;51.90
38780;BME280;29273;49.962;9.768;2022-08-19T07:16:49;99386.69;;;24.72;51.89
38780;BME280;29273;49.962;9.768;2022-08-19T07:19:17;99383.09;;;24.77;51.81
38780;BME280;29273;49.962;9.768;2022-08-19T07:21:42;99390.91;;;24.79;51.94
38780;BME280;29273;49.962;9.768;2022-08-19T07:24:08;99397.59;;;24.81;51.79
38780;BME280;29273;49.962;9.768;2022-08-19T07:26:38;99393.06;;;24.90;51.74
38780;BME280;29273;49.962;9.768;2022-08-19T07:29:05;99399.56;;;24.89;51.63
38780;BME280;29273;49.962;9.768;2022-08-19T07:31:30;99411.72;;;24.92;51.83
38780;BME280;29273;49.962;9.768;2022-08-19T07:33:58;99410.28;;;24.94;51.45
38780;BME280;29273;49.962;9.768;2022-08-19T07:36:27;99407.47;;;25.00;51.32
38780;BME280;29273;49.962;9.768;2022-08-19T07:38:59;99397.13;;;25.02;51.43
38780;BME280;29273;49.962;9.768;2022-08-19T07:41:27;99404.13;;;25.03;51.09
38780;BME280;29273;49.962;9.768;2022-08-19T07:43:54;99403.03;;;25.04;51.09
38780;BME280;29273;49.962;9.768;2022-08-19T07:46:20;99394.59;;;25.05;51.23
38780;BME280;29273;49.962;9.768;2022-08-19T07:48:48;99403.09;;;25.12;51.32
38780;BME280;29273;49.962;9.768;2022-08-19T07:51:20;99408.69;;;25.16;50.95
38780;BME280;29273;49.962;9.768;2022-08-19T07:53:47;99408.19;;;25.14;51.22
38780;BME280;29273;49.962;9.768;2022-08-19T07:56:14;99410.91;;;25.14;50.88
38780;BME280;29273;49.962;9.768;2022-08-19T07:58:41;99407.59;;;25.17;51.22
38780;BME280;29273;49.962;9.768;2022-08-19T08:01:09;99406.50;;;25.18;50.86
38780;BME280;29273;49.962;9.768;2022-08-19T08:03:37;99396.13;;;25.20;51.14
38780;BME280;29273;49.962;9.768;2022-08-19T08:06:21;99400.13;;;25.23;50.89
38780;BME280;29273;49.962;9.768;2022-08-19T08:09:07;99406.06;;;25.25;51.09
38780;BME280;29273;49.962;9.768;2022-08-19T08:11:57;99413.97;;;25.35;50.55
38780;BME280;29273;49.962;9.768;2022-08-19T08:14:28;99405.50;;;25.37;51.11
38780;BME280;29273;49.962;9.768;2022-08-19T08:16:54;99406.63;;;25.36;51.08
38780;BME280;29273;49.962;9.768;2022-08-19T08:19:22;99402.06;;;25.45;50.87
38780;BME280;29273;49.962;9.768;2022-08-19T08:21:49;99396.63;;;25.45;50.44
38780;BME280;29273;49.962;9.768;2022-08-19T08:24:16;99406.22;;;25.51;50.79
38780;BME280;29273;49.962;9.768;2022-08-19T08:26:42;99407.50;;;25.54;49.92
38780;BME280;29273;49.962;9.768;2022-08-19T08:29:10;99412.50;;;25.60;50.04
38780;BME280;29273;49.962;9.768;2022-08-19T08:31:39;99403.75;;;25.63;49.74
38780;BME280;29273;49.962;9.768;2022-08-19T08:34:05;99399.59;;;25.66;49.30
38780;BME280;29273;49.962;9.768;2022-08-19T08:36:30;99417.94;;;25.69;49.05
38780;BME280;29273;49.962;9.768;2022-08-19T08:38:58;99421.16;;;25.71;48.96
38780;BME280;29273;49.962;9.768;2022-08-19T08:41:40;99411.47;;;25.79;49.40
38780;BME280;29273;49.962;9.768;2022-08-19T08:44:17;99418.50;;;25.80;49.08
38780;BME280;29273;49.962;9.768;2022-08-19T08:46:51;99430.13;;;25.80;48.84
38780;BME280;29273;49.962;9.768;2022-08-19T08:49:36;99434.75;;;25.80;48.81
38780;BME280;29273;49.962;9.768;2022-08-19T08:52:28;99437.78;;;25.78;49.10
38780;BME280;29273;49.962;9.768;2022-08-19T08:54:57;99430.75;;;25.77;48.54
38780;BME280;29273;49.962;9.768;2022-08-19T08:57:33;99431.22;;;25.79;48.14
38780;BME280;29273;49.962;9.768;2022-08-19T09:00:03;99431.06;;;25.76;47.99
38780;BME280;29273;49.962;9.768;2022-08-19T09:02:30;99430.88;;;25.72;47.52
38780;BME280;29273;49.962;9.768;2022-08-19T09:04:56;99442.06;;;25.71;47.79
38780;BME280;29273;49.962;9.768;2022-08-19T09:07:42;99443.34;;;25.73;47.86
38780;BME280;29273;49.962;9.768;2022-08-19T09:10:29;99443.34;;;25.73;48.19
38780;BME280;29273;49.962;9.768;2022-08-19T09:15:43;99445.56;;;25.71;47.35
38780;BME280;29273;49.962;9.768;2022-08-19T09:18:11;99433.56;;;25.63;46.82
38780;BME280;29273;49.962;9.768;2022-08-19T09:20:37;99432.56;;;25.59;46.38
38780;BME280;29273;49.962;9.768;2022-08-19T09:23:03;99429.88;;;25.59;46.32
38780;BME280;29273;49.962;9.768;2022-08-19T09:25:28;99434.00;;;25.57;46.29
38780;BME280;29273;49.962;9.768;2022-08-19T09:27:55;99438.94;;;25.55;46.21
38780;BME280;29273;49.962;9.768;2022-08-19T09:30:26;99430.16;;;25.58;46.42
38780;BME280;29273;49.962;9.768;2022-08-19T09:32:53;99432.22;;;25.52;46.07
38780;BME280;29273;49.962;9.768;2022-08-19T09:35:21;99431.13;;;25.53;46.23
38780;BME280;29273;49.962;9.768;2022-08-19T09:37:48;99425.50;;;25.49;45.64
38780;BME280;29273;49.962;9.768;2022-08-19T09:40:14;99436.69;;;25.48;45.42
38780;BME280;29273;49.962;9.768;2022-08-19T09:42:41;99437.00;;;25.46;45.37
38780;BME280;29273;49.962;9.768;2022-08-19T09:45:09;99435.38;;;25.45;45.90
38780;BME280;29273;49.962;9.768;2022-08-19T09:47:35;99436.47;;;25.44;45.07
38780;BME280;29273;49.962;9.768;2022-08-19T09:50:08;99436.34;;;25.49;45.45
38780;BME280;29273;49.962;9.768;2022-08-19T09:52:34;99432.50;;;25.42;44.89
38780;BME280;29273;49.962;9.768;2022-08-19T09:55:04;99433.47;;;25.46;45.58
38780;BME280;29273;49.962;9.768;2022-08-19T09:57:29;99428.66;;;25.43;45.28
38780;BME280;29273;49.962;9.768;2022-08-19T09:59:55;99427.84;;;25.42;45.50
38780;BME280;29273;49.962;9.768;2022-08-19T10:02:20;99423.22;;;25.43;45.91
38780;BME280;29273;49.962;9.768;2022-08-19T10:04:46;99421.81;;;25.45;46.09
38780;BME280;29273;49.962;9.768;2022-08-19T10:07:30;99419.59;;;25.47;46.20
38780;BME280;29273;49.962;9.768;2022-08-19T10:09:55;99410.38;;;25.48;45.82
38780;BME280;29273;49.962;9.768;2022-08-19T10:12:21;99412.16;;;25.53;46.13
38780;BME280;29273;49.962;9.768;2022-08-19T10:14:47;99403.06;;;25.58;46.35
38780;BME280;29273;49.962;9.768;2022-08-19T10:17:13;99411.41;;;25.61;45.94
38780;BME280;29273;49.962;9.768;2022-08-19T10:19:40;99406.63;;;25.67;46.22
38780;BME280;29273;49.962;9.768;2022-08-19T10:22:06;99412.69;;;25.73;46.18
38780;BME280;29273;49.962;9.768;2022-08-19T10:24:33;99419.13;;;25.77;45.98
38780;BME280;29273;49.962;9.768;2022-08-19T10:27:00;99420.06;;;25.81;46.21
38780;BME280;29273;49.962;9.768;2022-08-19T10:29:29;99408.59;;;25.84;45.61
38780;BME280;29273;49.962;9.768;2022-08-19T10:31:55;99419.94;;;25.86;46.08
38780;BME280;29273;49.962;9.768;2022-08-19T10:34:21;99415.03;;;25.88;45.29
38780;BME280;29273;49.962;9.768;2022-08-19T10:36:48;99420.63;;;25.92;45.46
38780;BME280;29273;49.962;9.768;2022-08-19T10:39:13;99419.16;;;25.94;45.48
38780;BME280;29273;49.962;9.768;2022-08-19T10:41:39;99418.25;;;25.99;45.57
38780;BME280;29273;49.962;9.768;2022-08-19T10:44:07;99407.75;;;26.06;45.93
38780;BME280;29273;49.962;9.768;2022-08-19T10:46:36;99410.66;;;26.10;45.83
38780;BME280;29273;49.962;9.768;2022-08-19T10:49:04;99402.69;;;26.13;45.69
38780;BME280;29273;49.962;9.768;2022-08-19T10:51:29;99403.00;;;26.12;44.96
38780;BME280;29273;49.962;9.768;2022-08-19T10:54:14;99402.38;;;26.15;44.95
38780;BME280;29273;49.962;9.768;2022-08-19T10:56:40;99409.84;;;26.18;44.86
38780;BME280;29273;49.962;9.768;2022-08-19T10:59:25;99409.72;;;26.23;45.65
38780;BME280;29273;49.962;9.768;2022-08-19T11:01:51;99408.91;;;26.22;45.05
38780;BME280;29273;49.962;9.768;2022-08-19T11:04:18;99403.66;;;26.26;45.02
38780;BME280;29273;49.962;9.768;2022-08-19T11:06:45;99413.56;;;26.31;44.78
38780;BME280;29273;49.962;9.768;2022-08-19T11:09:14;99404.78;;;26.34;45.00
38780;BME280;29273;49.962;9.768;2022-08-19T11:11:40;99409.59;;;26.37;44.70
38780;BME280;29273;49.962;9.768;2022-08-19T11:14:11;99410.88;;;26.48;45.11
38780;BME280;29273;49.962;9.768;2022-08-19T11:16:37;99406.56;;;26.47;44.37
38780;BME280;29273;49.962;9.768;2022-08-19T11:19:05;99412.31;;;26.54;44.04
38780;BME280;29273;49.962;9.768;2022-08-19T11:21:33;99405.63;;;26.61;44.50
38780;BME280;29273;49.962;9.768;2022-08-19T11:24:16;99395.75;;;26.73;44.54
38780;BME280;29273;49.962;9.768;2022-08-19T11:26:43;99394.94;;;26.73;43.96
38780;BME280;29273;49.962;9.768;2022-08-19T11:29:10;99388.53;;;26.77;43.50
38780;BME280;29273;49.962;9.768;2022-08-19T11:31:42;99390.94;;;26.88;44.09
38780;BME280;29273;49.962;9.768;2022-08-19T11:34:11;99386.94;;;26.94;44.01
38780;BME280;29273;49.962;9.768;2022-08-19T11:36:40;99388.06;;;27.02;43.90
38780;BME280;29273;49.962;9.768;2022-08-19T11:39:07;99390.63;;;27.07;43.85
38780;BME280;29273;49.962;9.768;2022-08-19T11:41:33;99394.59;;;27.09;43.00
38780;BME280;29273;49.962;9.768;2022-08-19T11:43:59;99398.28;;;27.13;42.80
38780;BME280;29273;49.962;9.768;2022-08-19T11:46:26;99393.13;;;27.21;42.73
38780;BME280;29273;49.962;9.768;2022-08-19T11:48:58;99390.09;;;27.22;42.29
38780;BME280;29273;49.962;9.768;2022-08-19T11:51:27;99387.53;;;27.26;42.57
38780;BME280;29273;49.962;9.768;2022-08-19T11:53:54;99383.56;;;27.32;42.87
38780;BME280;29273;49.962;9.768;2022-08-19T11:56:21;99380.50;;;27.34;42.37
38780;BME280;29273;49.962;9.768;2022-08-19T11:58:47;99378.25;;;27.36;42.16
38780;BME280;29273;49.962;9.768;2022-08-19T12:01:16;99373.47;;;27.41;42.40
38780;BME280;29273;49.962;9.768;2022-08-19T12:03:44;99374.72;;;27.44;42.31
38780;BME280;29273;49.962;9.768;2022-08-19T12:06:19;99369.88;;;27.49;42.80
38780;BME280;29273;49.962;9.768;2022-08-19T12:08:45;99370.06;;;27.44;41.13
38780;BME280;29273;49.962;9.768;2022-08-19T12:11:12;99368.63;;;27.47;41.47
38780;BME280;29273;49.962;9.768;2022-08-19T12:13:39;99367.53;;;27.48;40.80
38780;BME280;29273;49.962;9.768;2022-08-19T12:16:12;99369.38;;;27.56;41.78
38780;BME280;29273;49.962;9.768;2022-08-19T12:18:39;99369.56;;;27.51;40.41
38780;BME280;29273;49.962;9.768;2022-08-19T12:21:07;99366.06;;;27.50;40.34
38780;BME280;29273;49.962;9.768;2022-08-19T12:23:35;99360.63;;;27.50;39.30
38780;BME280;29273;49.962;9.768;2022-08-19T12:26:02;99361.41;;;27.51;39.98
38780;BME280;29273;49.962;9.768;2022-08-19T12:28:28;99365.72;;;27.52;39.92
38780;BME280;29273;49.962;9.768;2022-08-19T12:30:56;99366.66;;;27.56;40.89
38780;BME280;29273;49.962;9.768;2022-08-19T12:33:22;99368.47;;;27.52;39.88
38780;BME280;29273;49.962;9.768;2022-08-19T12:35:53;99374.69;;;27.53;39.85
38780;BME280;29273;49.962;9.768;2022-08-19T12:38:19;99369.75;;;27.55;39.34
38780;BME280;29273;49.962;9.768;2022-08-19T12:40:45;99367.47;;;27.57;39.98
38780;BME280;29273;49.962;9.768;2022-08-19T12:43:12;99371.78;;;27.58;39.13
38780;BME280;29273;49.962;9.768;2022-08-19T12:45:37;99366.84;;;27.60;38.63
38780;BME280;29273;49.962;9.768;2022-08-19T12:48:03;99366.97;;;27.63;38.57
38780;BME280;29273;49.962;9.768;2022-08-19T12:50:30;99368.22;;;27.66;38.30
38780;BME280;29273;49.962;9.768;2022-08-19T12:52:56;99359.09;;;27.71;38.03
38780;BME280;29273;49.962;9.768;2022-08-19T12:55:22;99350.75;;;27.76;38.24
38780;BME280;29273;49.962;9.768;2022-08-19T12:57:48;99360.66;;;27.80;38.40
38780;BME280;29273;49.962;9.768;2022-08-19T13:00:19;99361.06;;;27.91;39.10
38780;BME280;29273;49.962;9.768;2022-08-19T13:02:48;99379.63;;;27.98;39.03
38780;BME280;29273;49.962;9.768;2022-08-19T13:05:26;99373.19;;;28.02;39.65
38780;BME280;29273;49.962;9.768;2022-08-19T13:07:54;99372.09;;;28.03;38.65
38780;BME280;29273;49.962;9.768;2022-08-19T13:10:29;99380.97;;;28.13;38.87